KNBG/NBG METAR and TAF weather

Enter ICAO airport designator
Station Type Date Time Source
KNBG METAR 2021/03/02 12:55 UTC NOAA

KNBG 021255Z 35010G20KT 2SM -RA BR OVC008 11/11 A3011 RMK AO2 CIG 007V011 PRESRR SLP196 P0003 T01110111 $


Station Type Date Time Source
KNBG Decoded METAR 2021/03/02 12:55 UTC NOAA

NEW ORLEANS NAVAL AIR STN, LA, United States (KNBG) 29-50N 90-01W
Mar 02, 2021 - 07:55 AM EST / 2021.03.02 1255 UTC
Wind: from the N (350 degrees) at 12 MPH (10 KT) gusting to 23 MPH (20 KT):0
Visibility: 2 mile(s):0
Sky conditions: overcast
Weather: light rain; mist
Precipitation last hour: 0.03 inches
Temperature: 52.0 F (11.1 C)
Dew Point: 52.0 F (11.1 C)
Relative Humidity: 100%
Pressure (altimeter): 30.11 in. Hg (1019 hPa)
Pressure tendency: rising rapidly
ob: KNBG 021255Z 35010G20KT 2SM -RA BR OVC008 11/11 A3011 RMK AO2 CIG 007V011 PRESRR SLP196 P0003 T01110111
cycle: 13

Station Type Date Time Source
KNBG TAF 2021/03/02 12:57 UTC NOAA

TAF TAF
AMD KNBG 0212/0307 08010G20KT 6000 SHRA BR VCTS BKN010 OVC020CB QNH3003INS
TEMPO 0212/0215 VRB25G35KT 1600 TSRA BR OVC007CB
BECMG 0215/0217 35014G25KT 4800 SHRA BR VCTS BKN005 OVC010CB QNH3001INS
TEMPO 0217/0221 36020G30KT 1600 SHRA BR TSRA OVC005CB
BECMG 0221/0223 36017G26KT 3200 SHRA BKN010 OVC020 QNH3003INS
BECMG 0302/0304 35014G25KT 9999 NSW BKN030 OVC050 QNH3003INS AUTOMATED SENSOR METWATCH 0207 TIL 0212 T12/0212Z T16/0219Z
AMD 1245 FN20039

Example: see airport list